Time;durP1;ratioP1;P1;durP2;ratioP2;P2;SDS_P1;SDS_P2;PMS_P1;PMS_P2;Temp;Humidity;BMP_temperature;BMP_pressure;BME280_temperature;BME280_humidity;BME280_pressure;Samples;Min_cycle;Max_cycle;Signal;HPM_P1;HPM_P2
2021/06/02 00:01:46;;;;;;;9.23;4.63;;;;;;;20.14;42.51;100179.28;4996421;28;20054;-86
2021/06/02 00:04:14;;;;;;;9.38;4.97;;;;;;;20.24;42.50;100175.56;4996952;28;20064;-86
2021/06/02 00:06:40;;;;;;;6.82;4.63;;;;;;;19.92;43.28;100167.50;5012910;28;20034;-85
2021/06/02 00:09:05;;;;;;;8.40;4.68;;;;;;;19.99;43.18;100163.16;5015683;28;20022;-86
2021/06/02 00:11:35;;;;;;;7.47;4.50;;;;;;;20.07;43.13;100156.97;5015786;28;20097;-85
2021/06/02 00:14:03;;;;;;;6.85;4.80;;;;;;;19.96;43.24;100158.19;5006185;28;20412;-85
2021/06/02 00:16:28;;;;;;;8.10;4.30;;;;;;;19.88;43.46;100152.84;4996448;28;20031;-85
2021/06/02 00:18:54;;;;;;;9.05;4.53;;;;;;;19.87;43.76;100155.72;4995143;28;20023;-85
2021/06/02 00:21:19;;;;;;;7.35;4.45;;;;;;;19.93;43.53;100149.69;4996160;28;20125;-85
2021/06/02 00:23:44;;;;;;;12.25;5.15;;;;;;;19.80;43.86;100148.38;4996174;28;20508;-85
2021/06/02 00:26:13;;;;;;;7.00;4.20;;;;;;;19.79;44.13;100152.06;4997494;28;20030;-85
2021/06/02 00:28:39;;;;;;;6.53;4.22;;;;;;;19.53;44.65;100143.41;4994818;28;20109;-85
2021/06/02 00:31:05;;;;;;;7.90;4.50;;;;;;;19.61;44.85;100146.91;4995980;28;20154;-86
2021/06/02 00:33:31;;;;;;;11.07;4.60;;;;;;;19.52;44.97;100147.09;4995996;28;20519;-85
2021/06/02 00:35:57;;;;;;;9.43;5.15;;;;;;;19.35;45.37;100140.94;4996826;28;20030;-85
2021/06/02 00:38:23;;;;;;;11.30;4.53;;;;;;;19.38;45.42;100138.78;4995717;28;20110;-85
2021/06/02 00:40:50;;;;;;;8.73;4.63;;;;;;;19.13;46.15;100140.59;4995816;28;20105;-85
2021/06/02 00:43:18;;;;;;;11.30;4.72;;;;;;;18.94;46.61;100135.63;4995516;28;20026;-85
2021/06/02 00:45:45;;;;;;;9.30;4.75;;;;;;;18.89;46.88;100129.97;4995477;28;20058;-85
2021/06/02 00:48:15;;;;;;;7.85;5.00;;;;;;;18.96;47.02;100142.44;5004708;28;20036;-85
2021/06/02 00:50:49;;;;;;;7.18;5.15;;;;;;;19.10;46.59;100137.47;5014919;28;20065;-85
2021/06/02 00:53:15;;;;;;;9.82;5.60;;;;;;;18.97;46.91;100129.97;5015054;28;20033;-85
2021/06/02 00:55:42;;;;;;;11.20;5.03;;;;;;;19.20;46.21;100132.81;5015267;28;20029;-85
2021/06/02 00:58:19;;;;;;;6.18;4.80;;;;;;;19.38;45.96;100143.28;5014793;28;20536;-85
2021/06/02 01:00:45;;;;;;;7.95;5.47;;;;;;;19.54;45.53;100132.59;5015113;28;20306;-85
2021/06/02 01:03:11;;;;;;;10.00;5.45;;;;;;;19.27;45.85;100123.13;5014944;28;20680;-85
2021/06/02 01:05:36;;;;;;;8.50;5.07;;;;;;;19.10;46.53;100132.97;5014374;28;20061;-85
2021/06/02 01:08:04;;;;;;;12.40;5.50;;;;;;;18.91;47.12;100131.47;5014859;28;20057;-85
2021/06/02 01:10:30;;;;;;;7.50;5.72;;;;;;;19.00;46.99;100130.47;5014666;28;20088;-85
2021/06/02 01:12:58;;;;;;;8.43;5.47;;;;;;;19.16;46.65;100136.81;5014746;28;20025;-85
2021/06/02 01:15:25;;;;;;;13.55;5.28;;;;;;;18.95;46.96;100124.81;5014448;28;20105;-86
2021/06/02 01:17:50;;;;;;;9.75;5.47;;;;;;;18.76;47.43;100125.09;5014590;28;20125;-85
2021/06/02 01:20:18;;;;;;;12.80;5.57;;;;;;;18.78;47.38;100125.78;5012757;28;20105;-85
2021/06/02 01:22:44;;;;;;;12.45;5.50;;;;;;;18.76;47.38;100119.75;5014482;28;20536;-85
2021/06/02 01:25:13;;;;;;;9.32;5.45;;;;;;;18.83;47.40;100110.16;5014689;28;20100;-85
2021/06/02 01:27:39;;;;;;;9.00;5.35;;;;;;;18.76;47.68;100115.28;5014295;28;20030;-85
2021/06/02 01:30:09;;;;;;;8.63;5.38;;;;;;;18.56;48.13;100114.78;5014252;28;20559;-85
2021/06/02 01:32:54;;;;;;;8.70;5.78;;;;;;;18.89;47.59;100114.81;5014333;28;20112;-85
2021/06/02 01:35:38;;;;;;;13.38;5.60;;;;;;;18.95;47.56;100111.50;5012722;28;20026;-85
2021/06/02 01:38:10;;;;;;;8.60;5.60;;;;;;;18.68;48.15;100107.31;5013995;28;20046;-85
2021/06/02 01:40:55;;;;;;;12.30;5.65;;;;;;;18.65;48.36;100109.47;5014051;28;20029;-85
2021/06/02 01:43:45;;;;;;;17.50;5.63;;;;;;;18.80;47.91;100111.34;5013980;28;20037;-85
2021/06/02 01:46:30;;;;;;;9.35;5.50;;;;;;;18.50;48.51;100106.59;5014193;28;20030;-85
2021/06/02 01:49:14;;;;;;;8.32;5.85;;;;;;;18.75;48.08;100107.47;5013934;28;20049;-85
2021/06/02 01:51:48;;;;;;;9.48;5.68;;;;;;;18.66;48.47;100108.44;4998521;28;20309;-85
2021/06/02 01:54:40;;;;;;;10.52;5.43;;;;;;;18.56;48.62;100108.59;5013628;28;20026;-85
2021/06/02 01:57:27;;;;;;;8.57;5.65;;;;;;;18.74;48.35;100117.28;5012443;28;20476;-85
2021/06/02 02:00:09;;;;;;;9.38;5.18;;;;;;;18.80;48.66;100116.66;5013650;28;20064;-85
2021/06/02 02:03:05;;;;;;;7.82;5.57;;;;;;;18.58;48.81;100119.91;5013698;28;20048;-85
2021/06/02 02:06:08;;;;;;;7.97;5.80;;;;;;;18.65;48.93;100115.59;5013687;28;20022;-85
2021/06/02 02:08:42;;;;;;;9.75;6.05;;;;;;;18.53;49.04;100107.09;5011884;28;20033;-85
2021/06/02 02:11:26;;;;;;;7.32;5.18;;;;;;;18.50;49.44;100107.41;5013166;28;20121;-85
2021/06/02 02:14:29;;;;;;;8.20;5.18;;;;;;;18.62;48.75;100106.13;5013202;28;20396;-85
2021/06/02 02:17:18;;;;;;;8.80;5.55;;;;;;;18.47;49.34;100115.75;5013391;28;20034;-85
2021/06/02 02:20:12;;;;;;;11.05;6.28;;;;;;;18.57;49.95;100111.09;5013442;28;20026;-85
2021/06/02 02:23:00;;;;;;;9.10;5.78;;;;;;;18.51;50.08;100105.63;5004598;28;20358;-85
2021/06/02 02:25:46;;;;;;;8.52;5.13;;;;;;;18.43;49.64;100109.09;5000284;28;20542;-85
2021/06/02 02:28:40;;;;;;;10.38;5.07;;;;;;;18.47;49.50;100105.09;5013143;28;20033;-85
2021/06/02 02:31:31;;;;;;;10.48;5.32;;;;;;;18.49;50.31;100096.97;5004066;28;20484;-85
2021/06/02 02:34:30;;;;;;;10.65;5.43;;;;;;;18.34;49.58;100107.38;5013100;28;20091;-85
2021/06/02 02:37:05;;;;;;;8.00;5.43;;;;;;;18.44;49.99;100113.41;5013030;28;20030;-85
2021/06/02 02:39:49;;;;;;;6.45;4.93;;;;;;;18.45;49.91;100112.41;5012334;28;20021;-85
2021/06/02 02:42:46;;;;;;;9.68;5.38;;;;;;;18.36;49.58;100108.06;4993480;28;20026;-85
2021/06/02 02:45:23;;;;;;;9.18;5.05;;;;;;;18.47;49.75;100114.91;4973991;28;20082;-85
2021/06/02 02:48:04;;;;;;;8.50;5.93;;;;;;;18.54;49.63;100110.59;4993489;28;20022;-85
2021/06/02 02:50:58;;;;;;;9.30;5.05;;;;;;;18.32;50.83;100115.53;4993149;28;20057;-85
2021/06/02 02:53:39;;;;;;;12.73;5.50;;;;;;;18.37;49.33;100110.56;4993069;28;20031;-85
2021/06/02 02:56:11;;;;;;;8.98;5.20;;;;;;;18.31;49.72;100097.94;4994158;28;20328;-85
2021/06/02 02:58:50;;;;;;;7.63;4.88;;;;;;;18.41;49.49;100100.44;4993063;28;20033;-85
2021/06/02 03:01:27;;;;;;;8.55;5.20;;;;;;;18.47;48.83;100099.78;4992809;28;20552;-85
2021/06/02 03:04:17;;;;;;;7.03;4.03;;;;;;;18.62;47.93;100098.16;4992888;28;20034;-85
2021/06/02 03:06:47;;;;;;;6.10;4.53;;;;;;;18.39;50.22;100105.91;4993166;28;20170;-85
2021/06/02 03:09:37;;;;;;;8.57;4.95;;;;;;;18.43;50.06;100087.81;4993032;28;20070;-85
2021/06/02 03:12:21;;;;;;;8.52;5.15;;;;;;;18.43;49.52;100087.81;4993225;28;20022;-85
2021/06/02 03:15:02;;;;;;;8.90;4.88;;;;;;;18.42;49.00;100068.38;4993125;28;20387;-85
2021/06/02 03:17:39;;;;;;;7.97;4.85;;;;;;;18.43;49.33;100079.84;4992850;28;20057;-85
2021/06/02 03:20:08;;;;;;;9.10;5.20;;;;;;;18.33;49.71;100073.84;4992725;28;20429;-85
2021/06/02 03:22:45;;;;;;;10.30;5.15;;;;;;;18.33;49.49;100061.38;4992560;28;20027;-85
2021/06/02 03:25:24;;;;;;;9.65;5.32;;;;;;;18.37;49.65;100067.22;4992316;28;20118;-85
2021/06/02 03:28:12;;;;;;;8.95;5.30;;;;;;;18.47;49.72;100073.22;4992969;28;20034;-85
2021/06/02 03:30:43;;;;;;;7.78;4.80;;;;;;;18.31;50.00;100068.69;4992620;28;20085;-85
2021/06/02 03:33:27;;;;;;;7.70;5.07;;;;;;;18.46;48.91;100071.53;4992733;28;20117;-85
2021/06/02 03:35:59;;;;;;;14.07;5.13;;;;;;;18.72;48.09;100071.41;5001857;28;20025;-85
2021/06/02 03:38:48;;;;;;;8.05;5.05;;;;;;;18.84;47.50;100063.97;5012634;28;20162;-85
2021/06/02 03:41:44;;;;;;;8.45;5.40;;;;;;;18.75;47.47;100070.25;5010862;28;20439;-85
2021/06/02 03:44:30;;;;;;;8.52;5.13;;;;;;;18.92;47.21;100063.97;5010953;28;20045;-85
2021/06/02 03:47:13;;;;;;;6.85;4.82;;;;;;;18.88;47.16;100062.63;5012261;28;20026;-86
2021/06/02 03:50:04;;;;;;;10.13;5.00;;;;;;;19.02;46.53;100072.59;4996047;28;20037;-85
2021/06/02 03:52:47;;;;;;;8.98;5.20;;;;;;;19.11;47.04;100061.94;4992902;28;20053;-85
2021/06/02 03:55:48;;;;;;;8.27;5.05;;;;;;;19.18;46.79;100071.75;4992724;28;20084;-85
2021/06/02 03:58:23;;;;;;;12.57;5.45;;;;;;;19.30;46.15;100066.91;4993059;28;20023;-85
2021/06/02 04:00:53;;;;;;;11.50;5.00;;;;;;;19.31;46.11;100063.25;4991108;28;20436;-86
2021/06/02 04:03:25;;;;;;;9.65;4.97;;;;;;;19.35;46.45;100069.91;4997908;28;20112;-85
2021/06/02 04:06:02;;;;;;;8.43;4.90;;;;;;;19.32;46.78;100061.44;5011978;28;20029;-85
2021/06/02 04:08:33;;;;;;;10.02;5.38;;;;;;;19.27;46.61;100059.25;5012042;28;20536;-85
2021/06/02 04:11:37;;;;;;;9.65;5.15;;;;;;;19.21;46.64;100060.78;5011982;28;20037;-85
2021/06/02 04:14:05;;;;;;;9.57;5.43;;;;;;;19.07;47.06;100064.09;5012012;28;20042;-85
2021/06/02 04:16:31;;;;;;;8.65;4.70;;;;;;;19.22;46.96;100061.59;5012153;28;20030;-85
2021/06/02 04:19:09;;;;;;;11.60;5.18;;;;;;;19.24;47.24;100072.09;5012164;28;20499;-85
2021/06/02 04:21:37;;;;;;;6.35;4.40;;;;;;;19.10;47.65;100069.09;4996275;28;20035;-85
2021/06/02 04:24:05;;;;;;;9.13;4.40;;;;;;;19.06;48.50;100062.47;4992166;28;20101;-85
2021/06/02 04:26:33;;;;;;;5.97;4.38;;;;;;;18.80;48.67;100067.97;4992315;28;20323;-85
2021/06/02 04:29:00;;;;;;;6.38;4.88;;;;;;;18.69;48.24;100065.59;4992208;28;20397;-85
2021/06/02 04:31:28;;;;;;;7.00;3.97;;;;;;;18.72;48.83;100060.78;4992090;28;20032;-85
2021/06/02 04:34:00;;;;;;;8.98;5.43;;;;;;;18.56;50.17;100061.59;4992302;28;20073;-85
2021/06/02 04:36:26;;;;;;;8.52;5.80;;;;;;;18.64;49.68;100058.09;4995513;28;20030;-85
2021/06/02 04:38:54;;;;;;;8.45;5.15;;;;;;;18.46;51.38;100052.09;4996085;28;20030;-85
2021/06/02 04:41:22;;;;;;;6.75;5.00;;;;;;;18.26;51.96;100054.22;4995824;28;20480;-85
2021/06/02 04:43:49;;;;;;;7.88;5.70;;;;;;;18.13;52.43;100058.19;4995923;28;20051;-85
2021/06/02 04:46:19;;;;;;;8.32;5.75;;;;;;;18.16;53.25;100065.00;4996441;28;20113;-85
2021/06/02 04:48:44;;;;;;;10.93;5.63;;;;;;;18.02;54.23;100058.47;4995552;28;20038;-85
2021/06/02 04:51:59;;;;;;;9.73;5.32;;;;;;;17.88;55.15;100067.06;4995334;28;20018;-85
2021/06/02 04:55:03;;;;;;;8.02;6.22;;;;;;;17.89;56.13;100076.69;4995354;28;20038;-85
2021/06/02 04:57:55;;;;;;;8.45;5.68;;;;;;;17.74;57.05;100071.94;4995585;28;20370;-85
2021/06/02 05:00:58;;;;;;;7.63;6.00;;;;;;;17.97;56.17;100076.69;5014585;28;20531;-85
2021/06/02 05:03:45;;;;;;;7.55;5.22;;;;;;;17.94;56.46;100061.94;5014921;28;20061;-85
2021/06/02 05:06:16;;;;;;;8.10;5.43;;;;;;;17.78;57.01;100062.66;5014912;28;20411;-85
2021/06/02 05:09:00;;;;;;;13.73;6.53;;;;;;;17.70;57.53;100059.97;5014826;28;20122;-85
2021/06/02 05:11:46;;;;;;;10.50;6.20;;;;;;;17.58;58.44;100055.94;5014651;28;20542;-85
2021/06/02 05:14:47;;;;;;;9.48;6.35;;;;;;;17.60;58.56;100056.63;5011451;28;20073;-85
2021/06/02 05:17:30;;;;;;;9.00;6.03;;;;;;;17.59;58.58;100050.44;4994754;28;20042;-85
2021/06/02 05:20:20;;;;;;;9.18;6.35;;;;;;;17.62;59.19;100049.31;5014492;28;20054;-85
2021/06/02 05:23:03;;;;;;;11.82;6.60;;;;;;;17.68;58.88;100048.69;5014561;28;20025;-85
2021/06/02 05:25:38;;;;;;;10.57;6.13;;;;;;;17.63;59.83;100041.22;5014567;28;20156;-85
2021/06/02 05:28:22;;;;;;;8.43;6.13;;;;;;;17.70;58.84;100037.91;5002662;28;20037;-85
2021/06/02 05:31:05;;;;;;;7.85;5.72;;;;;;;17.69;58.15;100047.69;5006688;28;20448;-85
2021/06/02 05:33:52;;;;;;;8.13;5.40;;;;;;;17.86;57.42;100047.81;5011335;28;20038;-85
2021/06/02 05:36:36;;;;;;;6.03;5.13;;;;;;;18.11;57.13;100054.84;5003871;28;20030;-85
2021/06/02 05:39:31;;;;;;;7.00;4.70;;;;;;;18.09;57.49;100048.03;5011162;28;20439;-86
2021/06/02 05:42:08;;;;;;;14.50;5.97;;;;;;;17.95;58.22;100050.31;5007092;28;20034;-86
2021/06/02 05:45:10;;;;;;;7.53;5.22;;;;;;;18.24;57.87;100051.72;5012847;28;20480;-85
2021/06/02 05:47:35;;;;;;;;;;;;;;;18.46;55.94;100046.78;5010408;28;20506;-86
2021/06/02 05:50:19;;;;;;;6.50;5.37;;;;;;;18.59;55.98;100042.63;5013433;28;19917;-86
2021/06/02 05:53:23;;;;;;;8.50;4.82;;;;;;;18.66;54.74;100056.13;5002677;28;20279;-86
2021/06/02 05:56:27;;;;;;;7.75;4.85;;;;;;;18.92;53.10;100050.66;5008998;28;20042;-85
2021/06/02 05:59:11;;;;;;;7.53;4.72;;;;;;;19.03;51.60;100047.63;5000010;28;20046;-84
2021/06/02 06:01:42;;;;;;;9.27;5.20;;;;;;;19.26;52.33;100041.63;4995066;28;20060;-85
2021/06/02 06:04:38;;;;;;;9.55;5.18;;;;;;;19.03;51.78;100037.00;4993536;28;20026;-85
2021/06/02 06:07:37;;;;;;;7.15;4.68;;;;;;;19.57;50.95;100048.88;5010787;28;20093;-84
2021/06/02 06:10:26;;;;;;;8.95;4.30;;;;;;;20.17;49.65;100029.63;5013467;28;20033;-87
2021/06/02 06:13:17;;;;;;;6.15;4.80;;;;;;;20.59;47.98;100032.88;5001343;28;20116;-85
2021/06/02 06:16:19;;;;;;;7.40;4.40;;;;;;;21.28;45.27;100032.75;5000776;28;20030;-88
2021/06/02 06:18:54;;;;;;;13.30;4.22;;;;;;;21.73;43.63;100027.44;5012480;28;20029;-86
2021/06/02 06:21:28;;;;;;;9.43;4.28;;;;;;;22.13;43.04;100038.59;5008750;28;20036;-87
2021/06/02 06:24:05;;;;;;;5.72;4.55;;;;;;;21.83;42.98;100022.63;5012176;28;20538;-86
2021/06/02 06:26:38;;;;;;;8.63;4.22;;;;;;;22.49;42.08;100021.72;4995286;28;20448;-87
2021/06/02 06:29:32;;;;;;;4.60;3.85;;;;;;;22.73;41.22;100025.88;4993768;28;20552;-86
2021/06/02 06:31:59;;;;;;;6.68;4.22;;;;;;;23.23;40.62;100021.31;4992459;28;20034;-87
2021/06/02 06:34:30;;;;;;;8.32;4.53;;;;;;;23.94;39.45;100022.94;4994003;28;20030;-87
2021/06/02 06:36:59;;;;;;;8.05;4.22;;;;;;;24.55;38.35;100019.38;4994870;28;20397;-87
2021/06/02 06:39:47;;;;;;;5.68;4.00;;;;;;;25.08;37.12;100029.25;5012109;28;20042;-87
2021/06/02 06:42:15;;;;;;;8.65;4.10;;;;;;;25.61;36.23;100021.13;5012581;28;20112;-88
2021/06/02 06:44:43;;;;;;;6.28;3.90;;;;;;;25.87;35.76;100022.88;5012836;28;20057;-87
2021/06/02 06:47:12;;;;;;;10.15;4.35;;;;;;;25.85;35.23;100026.78;5012158;28;20030;-87
2021/06/02 06:49:39;;;;;;;10.52;4.85;;;;;;;26.11;35.00;100029.41;5012953;28;20034;-87
2021/06/02 06:52:05;;;;;;;5.07;4.20;;;;;;;25.84;35.61;100028.66;5012089;28;20026;-87
2021/06/02 06:54:32;;;;;;;8.23;4.90;;;;;;;25.60;35.52;100021.34;4995963;28;20038;-86
2021/06/02 06:56:59;;;;;;;6.90;4.15;;;;;;;26.04;35.03;100027.78;4992928;28;20030;-87
2021/06/02 06:59:24;;;;;;;4.40;3.72;;;;;;;26.22;34.65;100027.88;5001725;28;20069;-88
2021/06/02 07:01:51;;;;;;;6.93;3.85;;;;;;;26.43;34.38;100032.09;5010819;28;20022;-88
2021/06/02 07:04:17;;;;;;;7.13;3.67;;;;;;;27.12;33.53;100029.50;4992877;28;20026;-88
2021/06/02 07:06:46;;;;;;;8.48;3.83;;;;;;;27.36;32.12;100040.50;5012293;28;20053;-87
2021/06/02 07:09:12;;;;;;;4.35;3.35;;;;;;;27.44;32.28;100038.31;5010556;28;20543;-88
2021/06/02 07:11:43;;;;;;;9.02;3.80;;;;;;;27.43;32.41;100035.84;4997921;28;20109;-88
2021/06/02 07:14:11;;;;;;;7.50;3.70;;;;;;;27.75;32.28;100039.22;4992735;28;20057;-87
2021/06/02 07:16:39;;;;;;;8.38;3.17;;;;;;;27.66;31.68;100040.56;5002443;28;20598;-87
2021/06/02 07:19:10;;;;;;;9.25;3.10;;;;;;;26.54;33.41;100035.13;5011962;28;20104;-87
2021/06/02 07:21:40;;;;;;;5.20;3.33;;;;;;;27.11;32.46;100038.63;4997768;28;20030;-87
2021/06/02 07:24:07;;;;;;;7.72;3.33;;;;;;;27.30;32.85;100032.25;4992850;28;20076;-87
2021/06/02 07:26:34;;;;;;;6.57;2.92;;;;;;;27.70;32.31;100030.97;5007135;28;20045;-87
2021/06/02 07:28:59;;;;;;;5.75;3.15;;;;;;;28.28;31.40;100027.75;5012213;28;20026;-87
2021/06/02 07:31:25;;;;;;;4.70;2.58;;;;;;;29.11;30.69;100030.59;5009844;28;21064;-88
2021/06/02 07:33:50;;;;;;;5.45;3.47;;;;;;;29.43;30.87;100031.03;4992385;28;20064;-88
2021/06/02 07:36:16;;;;;;;6.88;3.22;;;;;;;29.70;30.04;100032.38;4993685;28;20034;-89
2021/06/02 07:38:41;;;;;;;7.65;2.88;;;;;;;29.76;29.73;100031.44;4992497;28;20077;-88
2021/06/02 07:41:08;;;;;;;4.68;2.63;;;;;;;29.97;28.99;100033.50;4994796;28;20129;-87
2021/06/02 07:43:34;;;;;;;9.43;3.55;;;;;;;30.10;30.22;100032.41;5002538;28;20030;-87
2021/06/02 07:45:59;;;;;;;8.50;3.13;;;;;;;30.21;29.03;100034.25;4993350;28;20026;-88
2021/06/02 07:48:25;;;;;;;5.03;2.97;;;;;;;30.61;29.41;100044.16;4992411;28;20109;-88
2021/06/02 07:50:50;;;;;;;3.78;2.20;;;;;;;30.84;28.16;100039.63;4998307;28;20104;-88
2021/06/02 07:53:16;;;;;;;4.82;2.58;;;;;;;30.12;29.63;100041.09;5011795;28;20041;-88
2021/06/02 07:55:41;;;;;;;3.10;2.50;;;;;;;29.77;29.81;100033.13;5011671;28;20026;-88
2021/06/02 07:58:06;;;;;;;11.13;2.92;;;;;;;29.94;30.52;100039.41;5011284;28;20104;-89
2021/06/02 08:00:32;;;;;;;7.22;2.97;;;;;;;29.64;30.74;100034.16;4997301;28;20089;-87
2021/06/02 08:02:58;;;;;;;3.50;2.50;;;;;;;29.90;30.51;100030.13;4992290;28;20031;-87
2021/06/02 08:05:23;;;;;;;4.20;3.40;;;;;;;30.39;30.17;100030.53;4992168;28;20097;-87
2021/06/02 08:07:49;;;;;;;5.15;2.67;;;;;;;30.42;29.93;100040.03;4997063;28;20022;-88
2021/06/02 08:10:16;;;;;;;4.90;2.88;;;;;;;30.73;29.94;100033.25;5004724;28;20053;-88
2021/06/02 08:12:42;;;;;;;6.35;2.97;;;;;;;30.98;29.93;100034.72;5001738;28;20518;-88
2021/06/02 08:15:09;;;;;;;10.50;3.47;;;;;;;31.55;28.94;100031.75;5006014;28;20034;-88
2021/06/02 08:17:36;;;;;;;6.68;3.15;;;;;;;31.38;28.47;100036.38;4996159;28;20539;-88
2021/06/02 08:20:06;;;;;;;6.70;2.55;;;;;;;31.86;29.28;100031.31;4995916;28;20089;-88
2021/06/02 08:22:31;;;;;;;4.03;2.70;;;;;;;32.23;27.89;100036.88;4996842;28;20050;-88
2021/06/02 08:24:57;;;;;;;5.43;3.20;;;;;;;32.69;27.70;100040.03;5000332;28;20054;-89
2021/06/02 08:27:22;;;;;;;8.23;2.85;;;;;;;32.49;27.32;100028.97;4995938;28;20485;-88
2021/06/02 08:29:50;;;;;;;2.60;2.35;;;;;;;32.87;27.24;100025.19;5015016;28;20108;-88
2021/06/02 08:32:17;;;;;;;4.28;2.50;;;;;;;33.12;27.23;100026.50;5000866;28;20034;-91
2021/06/02 08:34:42;;;;;;;5.78;3.10;;;;;;;32.98;27.51;100032.34;4995637;28;20463;-88
2021/06/02 08:37:08;;;;;;;4.22;2.80;;;;;;;33.40;26.36;100022.56;5001078;28;20030;-88
2021/06/02 08:39:33;;;;;;;3.28;2.15;;;;;;;33.48;26.90;100023.94;4996935;28;20057;-88
2021/06/02 08:41:59;;;;;;;4.07;2.08;;;;;;;34.06;26.63;100021.16;5000839;28;20476;-87
2021/06/02 08:44:25;;;;;;;5.47;2.13;;;;;;;34.13;26.40;100025.25;5006481;28;20101;-89
2021/06/02 08:46:52;;;;;;;4.00;2.40;;;;;;;34.32;26.02;100031.03;5005251;28;20030;-87
2021/06/02 08:49:21;;;;;;;6.55;2.63;;;;;;;34.56;25.96;100027.78;5004577;28;20068;-88
2021/06/02 08:51:47;;;;;;;8.18;2.55;;;;;;;34.64;26.42;100035.41;5024832;28;20026;-89
2021/06/02 08:54:12;;;;;;;5.03;2.75;;;;;;;33.86;26.96;100025.47;5020859;28;20056;-89
2021/06/02 08:56:43;;;;;;;3.78;2.65;;;;;;;34.76;25.63;100025.06;5021554;28;20030;-88
2021/06/02 08:59:09;;;;;;;15.13;3.20;;;;;;;35.01;25.96;100023.38;5001883;28;20384;-88
2021/06/02 09:01:35;;;;;;;288.48;38.28;;;;;;;34.96;26.11;100028.84;4998171;28;20027;-87
2021/06/02 09:04:08;;;;;;;5.07;2.42;;;;;;;35.12;25.72;100024.97;4998528;28;20536;-88
2021/06/02 09:06:41;;;;;;;9.90;2.10;;;;;;;35.39;25.46;100020.28;5002710;28;20022;-88
2021/06/02 09:09:10;;;;;;;4.90;2.28;;;;;;;35.21;26.09;100029.91;5005881;28;20041;-88
2021/06/02 09:11:40;;;;;;;8.48;1.98;;;;;;;35.62;25.65;100029.75;5015910;28;20070;-88
2021/06/02 09:14:34;;;;;;;3.90;1.95;;;;;;;36.06;25.71;100018.88;5014210;28;20038;-88
2021/06/02 09:17:02;;;;;;;5.45;2.38;;;;;;;35.86;24.85;100032.66;5002002;28;20031;-88
2021/06/02 09:19:46;;;;;;;4.90;2.15;;;;;;;35.00;26.17;100021.75;5012971;28;20087;-88
2021/06/02 09:22:17;;;;;;;5.38;2.45;;;;;;;34.81;27.21;100020.69;5001253;28;20026;-88
2021/06/02 09:24:50;;;;;;;;;;;;;;;34.81;26.87;100015.22;5015100;28;20026;-89
2021/06/02 09:27:18;;;;;;;4.85;2.20;;;;;;;34.40;27.03;100018.75;5005804;28;19914;-88
2021/06/02 09:29:55;;;;;;;7.50;2.88;;;;;;;34.28;27.52;100016.31;5000995;28;20035;-87
2021/06/02 09:32:22;;;;;;;3.38;1.88;;;;;;;34.53;27.65;100011.94;5011308;28;20045;-88
2021/06/02 09:34:48;;;;;;;6.90;2.58;;;;;;;34.25;27.30;100010.59;5020952;28;20037;-88
2021/06/02 09:37:14;;;;;;;5.20;2.17;;;;;;;34.13;27.87;100014.34;5018780;28;20034;-88
2021/06/02 09:39:41;;;;;;;5.13;2.42;;;;;;;33.42;29.38;100004.06;5007798;28;20030;-88
2021/06/02 09:42:27;;;;;;;4.85;2.30;;;;;;;33.35;29.57;100007.00;5006842;28;20156;-88
2021/06/02 09:45:12;;;;;;;5.28;2.08;;;;;;;33.34;29.75;99989.06;5011370;28;20412;-88
2021/06/02 09:47:46;;;;;;;4.85;2.17;;;;;;;33.67;29.18;99995.19;4993586;28;20065;-87
2021/06/02 09:50:14;;;;;;;3.28;2.28;;;;;;;34.53;28.43;99992.88;4993426;28;20035;-88
2021/06/02 09:52:51;;;;;;;3.92;1.80;;;;;;;34.66;27.54;99995.09;4994422;28;20019;-88
2021/06/02 09:55:20;;;;;;;6.88;3.30;;;;;;;34.61;28.03;99995.03;4993891;28;20030;-88
2021/06/02 09:57:52;;;;;;;4.93;2.20;;;;;;;35.23;27.89;99993.06;4993688;28;20033;-88
2021/06/02 10:00:18;;;;;;;3.42;1.90;;;;;;;35.27;27.16;99985.13;4992854;28;20026;-88
2021/06/02 10:02:57;;;;;;;3.22;1.45;;;;;;;35.53;27.47;99992.13;5002376;28;20081;-88
2021/06/02 10:05:22;;;;;;;5.93;2.17;;;;;;;34.74;27.75;99991.78;4993128;28;20388;-88
2021/06/02 10:07:48;;;;;;;6.32;1.73;;;;;;;34.73;27.97;99990.13;5005235;28;20030;-88
2021/06/02 10:10:19;;;;;;;5.60;2.28;;;;;;;34.27;28.12;99997.50;5003199;28;20034;-88
2021/06/02 10:13:02;;;;;;;5.88;2.00;;;;;;;34.09;28.03;100002.38;5008237;28;20080;-89
2021/06/02 10:15:41;;;;;;;5.80;1.88;;;;;;;35.92;26.44;99999.59;5012880;28;20444;-89
2021/06/02 10:18:30;;;;;;;3.28;1.80;;;;;;;35.76;26.92;100008.94;5012775;28;20065;-89
2021/06/02 10:20:59;;;;;;;3.90;2.25;;;;;;;35.90;27.73;100011.88;4995809;28;20054;-89
2021/06/02 10:23:30;;;;;;;5.60;1.50;;;;;;;36.02;26.05;100004.16;4993321;28;20034;-89
2021/06/02 10:25:57;;;;;;;12.57;2.47;;;;;;;36.21;26.12;100012.50;5011929;28;20092;-90
2021/06/02 10:28:24;;;;;;;7.10;1.85;;;;;;;37.23;24.25;100005.31;5009576;28;20132;-88
2021/06/02 10:30:49;;;;;;;3.22;1.92;;;;;;;37.24;25.28;100006.13;5008845;28;20116;-88
2021/06/02 10:33:15;;;;;;;3.40;1.75;;;;;;;36.76;24.57;100011.53;5011064;28;20446;-88
2021/06/02 10:35:40;;;;;;;5.38;1.70;;;;;;;37.21;24.91;100003.97;5000600;28;20041;-89
2021/06/02 10:38:07;;;;;;;3.78;2.05;;;;;;;36.84;25.23;100002.69;5012004;28;20050;-88
2021/06/02 10:40:35;;;;;;;3.63;2.20;;;;;;;37.16;24.69;100006.75;5012105;28;20365;-88
2021/06/02 10:43:13;;;;;;;3.88;1.70;;;;;;;37.48;24.75;100000.59;4973146;28;1128863;-88
2021/06/02 10:45:50;;;;;;;4.22;1.80;;;;;;;37.50;24.18;99998.38;5008868;28;20484;-88
2021/06/02 10:48:36;;;;;;;8.65;2.08;;;;;;;37.07;25.70;99990.97;5008216;28;20076;-88
2021/06/02 10:51:01;;;;;;;4.25;1.50;;;;;;;37.30;25.69;99997.56;5012593;28;20067;-88
2021/06/02 10:53:28;;;;;;;4.13;1.40;;;;;;;36.96;26.71;99997.66;5012511;28;20053;-88
2021/06/02 10:56:01;;;;;;;5.13;1.50;;;;;;;37.04;25.68;99996.19;5012753;28;20029;-88
2021/06/02 10:58:34;;;;;;;10.38;2.10;;;;;;;36.41;26.07;100003.31;5012472;28;20026;-88
2021/06/02 11:01:14;;;;;;;9.80;2.03;;;;;;;35.95;27.15;99992.72;5012539;28;20053;-88
2021/06/02 11:03:43;;;;;;;2.65;1.40;;;;;;;35.68;27.16;100004.06;5012729;28;20080;-88
2021/06/02 11:06:15;;;;;;;3.67;1.60;;;;;;;34.80;28.29;100000.78;5012423;28;20076;-88
2021/06/02 11:08:52;;;;;;;5.30;1.40;;;;;;;34.69;28.54;99994.50;5012327;28;20512;-87
2021/06/02 11:11:40;;;;;;;6.38;1.83;;;;;;;34.60;27.86;99996.16;5026718;28;20458;-94
2021/06/02 11:14:15;;;;;;;6.05;1.80;;;;;;;34.40;28.40;100004.31;5004409;28;20041;-93
2021/06/02 11:16:42;;;;;;;4.38;1.65;;;;;;;34.46;28.74;100003.22;5013744;28;20403;-94
2021/06/02 11:19:11;;;;;;;7.85;1.90;;;;;;;34.21;28.77;100012.22;5011012;28;20476;-90
2021/06/02 11:21:52;;;;;;;5.03;1.80;;;;;;;34.75;28.91;100012.50;5012263;28;20498;-90
2021/06/02 11:27:10;;;;;;;8.73;1.57;;;;;;;34.59;29.17;100008.13;4992721;28;19914;-90
2021/06/02 11:29:56;;;;;;;7.28;1.92;;;;;;;33.95;29.61;100012.97;4993057;28;20026;-90
2021/06/02 11:32:30;;;;;;;2.88;1.90;;;;;;;33.67;30.19;100007.97;4989541;28;20065;-89
2021/06/02 11:34:57;;;;;;;5.13;2.28;;;;;;;33.36;30.88;100011.38;4997103;28;20038;-90
2021/06/02 11:37:25;;;;;;;19.25;4.47;;;;;;;33.35;31.31;100019.78;5013961;28;20037;-89
2021/06/02 11:39:56;;;;;;;5.97;2.45;;;;;;;34.14;31.21;100009.72;5012450;28;20029;-89
2021/06/02 11:42:27;;;;;;;10.00;2.40;;;;;;;34.45;30.65;100015.22;5012841;28;20030;-89
2021/06/02 11:45:09;;;;;;;6.68;2.78;;;;;;;34.75;29.96;100009.78;5000879;28;20038;-91
2021/06/02 11:47:37;;;;;;;9.93;2.45;;;;;;;34.48;30.09;100009.22;4996602;28;20489;-90
2021/06/02 11:50:02;;;;;;;5.35;2.50;;;;;;;34.11;30.32;100011.09;5011174;28;20055;-91
2021/06/02 11:52:28;;;;;;;5.45;2.20;;;;;;;34.10;30.73;100012.16;5016196;28;20468;-89
2021/06/02 11:55:03;;;;;;;6.13;2.30;;;;;;;33.04;31.65;100024.22;5015440;28;20034;-88
2021/06/02 11:57:40;;;;;;;13.57;2.35;;;;;;;32.84;32.41;100025.75;5015808;28;20105;-87
2021/06/02 12:00:07;;;;;;;3.80;2.17;;;;;;;32.65;32.79;100030.75;5015959;28;20495;-88
2021/06/02 12:02:34;;;;;;;4.03;2.42;;;;;;;32.65;32.58;100024.50;5015747;28;20034;-87